sensor_id;sensor_type;location;lat;lon;timestamp;temperature;humidity
2260;DHT22;333;48.800;9.530;2023-08-06T00:00:32;15.50;99.60
2260;DHT22;333;48.800;9.530;2023-08-06T00:02:59;15.40;99.60
2260;DHT22;333;48.800;9.530;2023-08-06T00:05:26;15.40;99.60
2260;DHT22;333;48.800;9.530;2023-08-06T00:07:52;15.40;99.60
2260;DHT22;333;48.800;9.530;2023-08-06T00:10:19;15.40;99.60
2260;DHT22;333;48.800;9.530;2023-08-06T00:12:46;15.60;99.60
2260;DHT22;333;48.800;9.530;2023-08-06T00:15:15;15.70;99.60
2260;DHT22;333;48.800;9.530;2023-08-06T00:17:42;15.50;99.60
2260;DHT22;333;48.800;9.530;2023-08-06T00:20:09;15.50;99.60
2260;DHT22;333;48.800;9.530;2023-08-06T00:22:37;15.50;99.60
2260;DHT22;333;48.800;9.530;2023-08-06T00:25:05;15.50;99.60
2260;DHT22;333;48.800;9.530;2023-08-06T00:27:32;15.50;99.60
2260;DHT22;333;48.800;9.530;2023-08-06T00:29:59;15.60;99.60
2260;DHT22;333;48.800;9.530;2023-08-06T00:32:27;15.70;99.60
2260;DHT22;333;48.800;9.530;2023-08-06T00:34:54;15.60;99.60
2260;DHT22;333;48.800;9.530;2023-08-06T00:37:21;15.50;99.60
2260;DHT22;333;48.800;9.530;2023-08-06T00:39:48;15.60;99.60
2260;DHT22;333;48.800;9.530;2023-08-06T00:42:14;15.60;99.60
2260;DHT22;333;48.800;9.530;2023-08-06T00:44:46;15.70;99.60
2260;DHT22;333;48.800;9.530;2023-08-06T00:47:13;15.70;99.60
2260;DHT22;333;48.800;9.530;2023-08-06T00:49:42;15.70;99.60
2260;DHT22;333;48.800;9.530;2023-08-06T00:52:09;15.60;99.60
2260;DHT22;333;48.800;9.530;2023-08-06T00:54:37;15.60;99.60
2260;DHT22;333;48.800;9.530;2023-08-06T00:57:05;15.50;99.60
2260;DHT22;333;48.800;9.530;2023-08-06T00:59:32;15.40;99.60
2260;DHT22;333;48.800;9.530;2023-08-06T01:01:59;15.30;99.60
2260;DHT22;333;48.800;9.530;2023-08-06T01:04:26;15.20;99.60
2260;DHT22;333;48.800;9.530;2023-08-06T01:07:02;15.20;99.60
2260;DHT22;333;48.800;9.530;2023-08-06T01:09:37;15.20;99.60
2260;DHT22;333;48.800;9.530;2023-08-06T01:12:18;15.20;99.60
2260;DHT22;333;48.800;9.530;2023-08-06T01:14:52;15.20;99.60
2260;DHT22;333;48.800;9.530;2023-08-06T01:17:20;15.40;99.60
2260;DHT22;333;48.800;9.530;2023-08-06T01:19:48;15.40;99.60
2260;DHT22;333;48.800;9.530;2023-08-06T01:22:16;15.40;99.60
2260;DHT22;333;48.800;9.530;2023-08-06T01:24:46;15.40;99.60
2260;DHT22;333;48.800;9.530;2023-08-06T01:27:17;15.30;99.60
2260;DHT22;333;48.800;9.530;2023-08-06T01:29:56;15.10;99.60
2260;DHT22;333;48.800;9.530;2023-08-06T01:32:25;15.00;99.60
2260;DHT22;333;48.800;9.530;2023-08-06T01:34:54;15.00;99.60
2260;DHT22;333;48.800;9.530;2023-08-06T01:37:23;15.10;99.60
2260;DHT22;333;48.800;9.530;2023-08-06T01:39:50;15.10;99.60
2260;DHT22;333;48.800;9.530;2023-08-06T01:42:17;15.00;99.60
2260;DHT22;333;48.800;9.530;2023-08-06T01:44:44;14.90;99.60
2260;DHT22;333;48.800;9.530;2023-08-06T01:47:11;14.90;99.60
2260;DHT22;333;48.800;9.530;2023-08-06T01:49:38;14.90;99.60
2260;DHT22;333;48.800;9.530;2023-08-06T01:52:05;14.80;99.60
2260;DHT22;333;48.800;9.530;2023-08-06T01:54:34;14.80;99.60
2260;DHT22;333;48.800;9.530;2023-08-06T01:57:00;14.70;99.60
2260;DHT22;333;48.800;9.530;2023-08-06T01:59:27;14.70;99.60
2260;DHT22;333;48.800;9.530;2023-08-06T02:01:54;14.70;99.60
2260;DHT22;333;48.800;9.530;2023-08-06T02:04:21;14.70;99.60
2260;DHT22;333;48.800;9.530;2023-08-06T02:06:48;14.80;99.60
2260;DHT22;333;48.800;9.530;2023-08-06T02:09:15;14.80;99.60
2260;DHT22;333;48.800;9.530;2023-08-06T02:11:43;14.70;99.60
2260;DHT22;333;48.800;9.530;2023-08-06T02:14:10;14.60;99.60
2260;DHT22;333;48.800;9.530;2023-08-06T02:16:37;14.70;99.60
2260;DHT22;333;48.800;9.530;2023-08-06T02:19:04;14.80;99.60
2260;DHT22;333;48.800;9.530;2023-08-06T02:21:31;14.90;99.60
2260;DHT22;333;48.800;9.530;2023-08-06T02:23:58;14.90;99.60
2260;DHT22;333;48.800;9.530;2023-08-06T02:26:24;15.00;99.60
2260;DHT22;333;48.800;9.530;2023-08-06T02:28:53;15.10;99.60
2260;DHT22;333;48.800;9.530;2023-08-06T02:31:20;15.10;99.60
2260;DHT22;333;48.800;9.530;2023-08-06T02:33:46;15.20;99.60
2260;DHT22;333;48.800;9.530;2023-08-06T02:36:13;15.20;99.60
2260;DHT22;333;48.800;9.530;2023-08-06T02:38:40;15.10;99.60
2260;DHT22;333;48.800;9.530;2023-08-06T02:41:07;15.20;99.60
2260;DHT22;333;48.800;9.530;2023-08-06T02:43:34;15.00;99.60
2260;DHT22;333;48.800;9.530;2023-08-06T02:46:02;15.10;99.60
2260;DHT22;333;48.800;9.530;2023-08-06T02:48:29;15.00;99.60
2260;DHT22;333;48.800;9.530;2023-08-06T02:50:57;14.90;99.60
2260;DHT22;333;48.800;9.530;2023-08-06T02:53:25;14.90;99.60
2260;DHT22;333;48.800;9.530;2023-08-06T02:55:52;14.80;99.60
2260;DHT22;333;48.800;9.530;2023-08-06T02:58:20;14.70;99.60
2260;DHT22;333;48.800;9.530;2023-08-06T03:00:59;14.70;99.60
2260;DHT22;333;48.800;9.530;2023-08-06T03:03:28;14.70;99.60
2260;DHT22;333;48.800;9.530;2023-08-06T03:05:55;14.60;99.60
2260;DHT22;333;48.800;9.530;2023-08-06T03:08:22;14.50;99.60
2260;DHT22;333;48.800;9.530;2023-08-06T03:10:49;14.50;99.60
2260;DHT22;333;48.800;9.530;2023-08-06T03:13:16;14.60;99.60
2260;DHT22;333;48.800;9.530;2023-08-06T03:15:43;14.60;99.60
2260;DHT22;333;48.800;9.530;2023-08-06T03:18:10;14.70;99.60
2260;DHT22;333;48.800;9.530;2023-08-06T03:20:38;14.70;99.60
2260;DHT22;333;48.800;9.530;2023-08-06T03:23:05;14.60;99.60
2260;DHT22;333;48.800;9.530;2023-08-06T03:25:35;14.60;99.60
2260;DHT22;333;48.800;9.530;2023-08-06T03:28:02;14.60;99.60
2260;DHT22;333;48.800;9.530;2023-08-06T03:30:29;14.50;99.60
2260;DHT22;333;48.800;9.530;2023-08-06T03:32:56;14.50;99.60
2260;DHT22;333;48.800;9.530;2023-08-06T03:35:23;14.50;99.60
2260;DHT22;333;48.800;9.530;2023-08-06T03:37:51;14.50;99.60
2260;DHT22;333;48.800;9.530;2023-08-06T03:40:18;14.40;99.60
2260;DHT22;333;48.800;9.530;2023-08-06T03:42:45;14.30;99.60
2260;DHT22;333;48.800;9.530;2023-08-06T03:45:11;14.20;99.60
2260;DHT22;333;48.800;9.530;2023-08-06T03:47:38;14.10;99.60
2260;DHT22;333;48.800;9.530;2023-08-06T03:50:06;14.10;99.60
2260;DHT22;333;48.800;9.530;2023-08-06T03:52:33;14.20;99.60
2260;DHT22;333;48.800;9.530;2023-08-06T03:55:01;14.20;99.60
2260;DHT22;333;48.800;9.530;2023-08-06T03:57:28;14.20;99.60
2260;DHT22;333;48.800;9.530;2023-08-06T03:59:55;14.20;99.60
2260;DHT22;333;48.800;9.530;2023-08-06T04:02:22;14.20;99.60
2260;DHT22;333;48.800;9.530;2023-08-06T04:04:49;14.40;99.60
2260;DHT22;333;48.800;9.530;2023-08-06T04:07:16;14.40;99.60
2260;DHT22;333;48.800;9.530;2023-08-06T04:09:56;14.50;99.60
2260;DHT22;333;48.800;9.530;2023-08-06T04:12:25;14.60;99.60
2260;DHT22;333;48.800;9.530;2023-08-06T04:14:53;14.50;99.60
2260;DHT22;333;48.800;9.530;2023-08-06T04:17:20;14.50;99.60
2260;DHT22;333;48.800;9.530;2023-08-06T04:19:49;14.60;99.60
2260;DHT22;333;48.800;9.530;2023-08-06T04:22:16;14.50;99.60
2260;DHT22;333;48.800;9.530;2023-08-06T04:24:44;14.60;99.60
2260;DHT22;333;48.800;9.530;2023-08-06T04:27:11;14.50;99.60
2260;DHT22;333;48.800;9.530;2023-08-06T04:29:40;14.60;99.60
2260;DHT22;333;48.800;9.530;2023-08-06T04:32:08;14.40;99.60
2260;DHT22;333;48.800;9.530;2023-08-06T04:34:36;14.20;99.60
2260;DHT22;333;48.800;9.530;2023-08-06T04:37:04;14.20;99.60
2260;DHT22;333;48.800;9.530;2023-08-06T04:39:31;14.20;99.60
2260;DHT22;333;48.800;9.530;2023-08-06T04:41:58;14.40;99.60
2260;DHT22;333;48.800;9.530;2023-08-06T04:44:25;14.30;99.60
2260;DHT22;333;48.800;9.530;2023-08-06T04:46:53;14.40;99.60
2260;DHT22;333;48.800;9.530;2023-08-06T04:49:20;14.40;99.60
2260;DHT22;333;48.800;9.530;2023-08-06T04:51:47;14.30;99.60
2260;DHT22;333;48.800;9.530;2023-08-06T04:54:14;14.50;99.60
2260;DHT22;333;48.800;9.530;2023-08-06T04:56:41;14.50;99.60
2260;DHT22;333;48.800;9.530;2023-08-06T04:59:08;14.40;99.60
2260;DHT22;333;48.800;9.530;2023-08-06T05:01:35;14.40;99.60
2260;DHT22;333;48.800;9.530;2023-08-06T05:04:03;14.40;99.60
2260;DHT22;333;48.800;9.530;2023-08-06T05:06:30;14.40;99.60
2260;DHT22;333;48.800;9.530;2023-08-06T05:08:57;14.40;99.60
2260;DHT22;333;48.800;9.530;2023-08-06T05:11:24;14.40;99.60
2260;DHT22;333;48.800;9.530;2023-08-06T05:13:51;14.40;99.60
2260;DHT22;333;48.800;9.530;2023-08-06T05:16:18;14.40;99.60
2260;DHT22;333;48.800;9.530;2023-08-06T05:18:45;14.50;99.60
2260;DHT22;333;48.800;9.530;2023-08-06T05:21:13;14.50;99.60
2260;DHT22;333;48.800;9.530;2023-08-06T05:23:41;14.50;99.60
2260;DHT22;333;48.800;9.530;2023-08-06T05:26:08;14.50;99.60
2260;DHT22;333;48.800;9.530;2023-08-06T05:28:35;14.50;99.60
2260;DHT22;333;48.800;9.530;2023-08-06T05:31:03;14.50;99.60
2260;DHT22;333;48.800;9.530;2023-08-06T05:33:30;14.50;99.60
2260;DHT22;333;48.800;9.530;2023-08-06T05:35:57;14.50;99.60
2260;DHT22;333;48.800;9.530;2023-08-06T05:38:25;14.60;99.60
2260;DHT22;333;48.800;9.530;2023-08-06T05:40:52;14.60;99.60
2260;DHT22;333;48.800;9.530;2023-08-06T05:43:19;14.60;99.60
2260;DHT22;333;48.800;9.530;2023-08-06T05:45:48;14.70;99.60
2260;DHT22;333;48.800;9.530;2023-08-06T05:48:15;14.70;99.60
2260;DHT22;333;48.800;9.530;2023-08-06T05:50:42;14.80;99.60
2260;DHT22;333;48.800;9.530;2023-08-06T05:53:09;14.80;99.60
2260;DHT22;333;48.800;9.530;2023-08-06T05:55:38;14.90;99.60
2260;DHT22;333;48.800;9.530;2023-08-06T05:58:05;14.90;99.60
2260;DHT22;333;48.800;9.530;2023-08-06T06:00:32;15.00;99.60
2260;DHT22;333;48.800;9.530;2023-08-06T06:03:00;15.00;99.60
2260;DHT22;333;48.800;9.530;2023-08-06T06:05:28;15.10;99.60
2260;DHT22;333;48.800;9.530;2023-08-06T06:07:55;15.20;99.60
2260;DHT22;333;48.800;9.530;2023-08-06T06:10:21;15.20;99.60
2260;DHT22;333;48.800;9.530;2023-08-06T06:12:50;15.20;99.60
2260;DHT22;333;48.800;9.530;2023-08-06T06:15:16;15.20;99.60
2260;DHT22;333;48.800;9.530;2023-08-06T06:17:43;15.10;99.60
2260;DHT22;333;48.800;9.530;2023-08-06T06:20:10;15.20;99.60
2260;DHT22;333;48.800;9.530;2023-08-06T06:22:37;15.20;99.60
2260;DHT22;333;48.800;9.530;2023-08-06T06:25:05;15.20;99.60
2260;DHT22;333;48.800;9.530;2023-08-06T06:27:32;15.20;99.60
2260;DHT22;333;48.800;9.530;2023-08-06T06:30:00;15.30;99.60
2260;DHT22;333;48.800;9.530;2023-08-06T06:32:28;15.40;99.60
2260;DHT22;333;48.800;9.530;2023-08-06T06:34:54;15.40;99.60
2260;DHT22;333;48.800;9.530;2023-08-06T06:37:21;15.50;99.60
2260;DHT22;333;48.800;9.530;2023-08-06T06:39:48;15.50;99.60
2260;DHT22;333;48.800;9.530;2023-08-06T06:42:15;15.60;99.60
2260;DHT22;333;48.800;9.530;2023-08-06T06:44:42;15.70;99.60
2260;DHT22;333;48.800;9.530;2023-08-06T06:47:10;15.70;99.60
2260;DHT22;333;48.800;9.530;2023-08-06T06:49:37;15.80;99.60
2260;DHT22;333;48.800;9.530;2023-08-06T06:52:05;15.80;99.60
2260;DHT22;333;48.800;9.530;2023-08-06T06:54:32;15.80;99.60
2260;DHT22;333;48.800;9.530;2023-08-06T06:56:59;15.80;99.60
2260;DHT22;333;48.800;9.530;2023-08-06T06:59:25;15.70;99.60
2260;DHT22;333;48.800;9.530;2023-08-06T07:01:52;15.60;99.60
2260;DHT22;333;48.800;9.530;2023-08-06T07:04:20;15.40;99.60
2260;DHT22;333;48.800;9.530;2023-08-06T07:06:47;15.30;99.60
2260;DHT22;333;48.800;9.530;2023-08-06T07:09:14;15.30;99.60
2260;DHT22;333;48.800;9.530;2023-08-06T07:11:41;15.30;99.60
2260;DHT22;333;48.800;9.530;2023-08-06T07:14:09;15.30;99.60
2260;DHT22;333;48.800;9.530;2023-08-06T07:16:36;15.30;99.60
2260;DHT22;333;48.800;9.530;2023-08-06T07:19:03;15.30;99.60
2260;DHT22;333;48.800;9.530;2023-08-06T07:21:32;15.40;99.60
2260;DHT22;333;48.800;9.530;2023-08-06T07:23:59;15.40;99.60
2260;DHT22;333;48.800;9.530;2023-08-06T07:26:26;15.40;99.60
2260;DHT22;333;48.800;9.530;2023-08-06T07:28:53;15.50;99.60
2260;DHT22;333;48.800;9.530;2023-08-06T07:31:20;15.50;99.60
2260;DHT22;333;48.800;9.530;2023-08-06T07:33:46;15.60;99.60
2260;DHT22;333;48.800;9.530;2023-08-06T07:36:14;15.70;99.60
2260;DHT22;333;48.800;9.530;2023-08-06T07:38:42;15.70;99.60
2260;DHT22;333;48.800;9.530;2023-08-06T07:41:09;15.60;99.60
2260;DHT22;333;48.800;9.530;2023-08-06T07:43:36;15.50;99.60
2260;DHT22;333;48.800;9.530;2023-08-06T07:46:03;15.50;99.60
2260;DHT22;333;48.800;9.530;2023-08-06T07:48:30;15.40;99.60
2260;DHT22;333;48.800;9.530;2023-08-06T07:50:57;15.50;99.60
2260;DHT22;333;48.800;9.530;2023-08-06T07:53:25;15.40;99.60
2260;DHT22;333;48.800;9.530;2023-08-06T07:55:56;15.40;99.60
2260;DHT22;333;48.800;9.530;2023-08-06T07:58:24;15.30;99.60
2260;DHT22;333;48.800;9.530;2023-08-06T08:00:51;15.20;99.60
2260;DHT22;333;48.800;9.530;2023-08-06T08:03:18;15.10;99.60
2260;DHT22;333;48.800;9.530;2023-08-06T08:05:45;15.00;99.60
2260;DHT22;333;48.800;9.530;2023-08-06T08:08:12;14.90;99.60
2260;DHT22;333;48.800;9.530;2023-08-06T08:10:39;15.10;99.60
2260;DHT22;333;48.800;9.530;2023-08-06T08:13:08;15.10;99.60
2260;DHT22;333;48.800;9.530;2023-08-06T08:15:35;15.20;99.60
2260;DHT22;333;48.800;9.530;2023-08-06T08:18:02;15.30;99.60
2260;DHT22;333;48.800;9.530;2023-08-06T08:20:29;15.50;99.60
2260;DHT22;333;48.800;9.530;2023-08-06T08:22:58;15.60;99.60
2260;DHT22;333;48.800;9.530;2023-08-06T08:25:26;15.80;99.60
2260;DHT22;333;48.800;9.530;2023-08-06T08:27:53;16.00;99.60
2260;DHT22;333;48.800;9.530;2023-08-06T08:30:22;16.20;99.60
2260;DHT22;333;48.800;9.530;2023-08-06T08:32:50;16.40;99.60
2260;DHT22;333;48.800;9.530;2023-08-06T08:35:17;16.50;99.60
2260;DHT22;333;48.800;9.530;2023-08-06T08:37:44;16.70;99.60
2260;DHT22;333;48.800;9.530;2023-08-06T08:40:11;16.60;99.60
2260;DHT22;333;48.800;9.530;2023-08-06T08:42:38;16.70;99.60
2260;DHT22;333;48.800;9.530;2023-08-06T08:45:09;16.90;99.60
2260;DHT22;333;48.800;9.530;2023-08-06T08:47:40;17.10;99.60
2260;DHT22;333;48.800;9.530;2023-08-06T08:50:08;17.50;99.60
2260;DHT22;333;48.800;9.530;2023-08-06T08:52:36;17.80;99.60
2260;DHT22;333;48.800;9.530;2023-08-06T08:55:06;17.90;99.60
2260;DHT22;333;48.800;9.530;2023-08-06T08:57:34;17.80;99.60
2260;DHT22;333;48.800;9.530;2023-08-06T09:00:01;17.80;99.60
2260;DHT22;333;48.800;9.530;2023-08-06T09:02:28;17.70;99.60
2260;DHT22;333;48.800;9.530;2023-08-06T09:04:58;17.80;99.60
2260;DHT22;333;48.800;9.530;2023-08-06T09:07:31;17.60;99.60
2260;DHT22;333;48.800;9.530;2023-08-06T09:09:59;17.60;99.60
2260;DHT22;333;48.800;9.530;2023-08-06T09:12:29;17.70;99.60
2260;DHT22;333;48.800;9.530;2023-08-06T09:14:56;17.60;99.60
2260;DHT22;333;48.800;9.530;2023-08-06T09:17:23;17.40;99.60
2260;DHT22;333;48.800;9.530;2023-08-06T09:19:50;17.30;99.60
2260;DHT22;333;48.800;9.530;2023-08-06T09:22:19;17.40;99.60
2260;DHT22;333;48.800;9.530;2023-08-06T09:24:46;17.10;99.60
2260;DHT22;333;48.800;9.530;2023-08-06T09:27:13;16.50;99.60
2260;DHT22;333;48.800;9.530;2023-08-06T09:29:42;16.10;99.60
2260;DHT22;333;48.800;9.530;2023-08-06T09:32:11;16.00;99.60
2260;DHT22;333;48.800;9.530;2023-08-06T09:34:39;15.90;99.60
2260;DHT22;333;48.800;9.530;2023-08-06T09:37:08;15.90;99.60
2260;DHT22;333;48.800;9.530;2023-08-06T09:39:38;15.90;99.60
2260;DHT22;333;48.800;9.530;2023-08-06T09:42:06;15.80;99.60
2260;DHT22;333;48.800;9.530;2023-08-06T09:44:33;15.80;99.60
2260;DHT22;333;48.800;9.530;2023-08-06T09:47:02;15.80;99.60
2260;DHT22;333;48.800;9.530;2023-08-06T09:49:40;16.00;99.60
2260;DHT22;333;48.800;9.530;2023-08-06T09:52:11;16.20;99.60
2260;DHT22;333;48.800;9.530;2023-08-06T09:54:39;16.50;99.60
2260;DHT22;333;48.800;9.530;2023-08-06T09:57:06;16.60;99.60
2260;DHT22;333;48.800;9.530;2023-08-06T09:59:34;16.50;99.60
2260;DHT22;333;48.800;9.530;2023-08-06T10:02:03;16.40;99.60
2260;DHT22;333;48.800;9.530;2023-08-06T10:04:33;16.60;99.60
2260;DHT22;333;48.800;9.530;2023-08-06T10:07:00;16.60;99.60
2260;DHT22;333;48.800;9.530;2023-08-06T10:09:28;16.60;99.60
2260;DHT22;333;48.800;9.530;2023-08-06T10:11:57;16.50;99.60
2260;DHT22;333;48.800;9.530;2023-08-06T10:14:28;16.60;99.60
2260;DHT22;333;48.800;9.530;2023-08-06T10:16:57;16.60;99.60
2260;DHT22;333;48.800;9.530;2023-08-06T10:19:25;16.60;99.60
2260;DHT22;333;48.800;9.530;2023-08-06T10:22:09;16.70;99.60
2260;DHT22;333;48.800;9.530;2023-08-06T10:24:48;16.80;99.60
2260;DHT22;333;48.800;9.530;2023-08-06T10:27:20;16.90;99.60
2260;DHT22;333;48.800;9.530;2023-08-06T10:29:48;17.00;99.60
2260;DHT22;333;48.800;9.530;2023-08-06T10:32:15;16.90;99.60
2260;DHT22;333;48.800;9.530;2023-08-06T10:34:57;16.70;99.60
2260;DHT22;333;48.800;9.530;2023-08-06T10:37:27;16.60;99.60
2260;DHT22;333;48.800;9.530;2023-08-06T10:40:00;16.50;99.60
2260;DHT22;333;48.800;9.530;2023-08-06T10:42:31;16.40;99.60
2260;DHT22;333;48.800;9.530;2023-08-06T10:45:18;16.50;99.60
2260;DHT22;333;48.800;9.530;2023-08-06T10:47:46;16.50;99.60
2260;DHT22;333;48.800;9.530;2023-08-06T10:50:14;16.50;99.60
2260;DHT22;333;48.800;9.530;2023-08-06T10:52:42;16.30;99.60
2260;DHT22;333;48.800;9.530;2023-08-06T10:55:09;16.20;99.60
2260;DHT22;333;48.800;9.530;2023-08-06T10:57:38;16.20;99.60
2260;DHT22;333;48.800;9.530;2023-08-06T11:00:06;16.20;99.60
2260;DHT22;333;48.800;9.530;2023-08-06T11:02:34;16.40;99.60
2260;DHT22;333;48.800;9.530;2023-08-06T11:05:08;16.50;99.60
2260;DHT22;333;48.800;9.530;2023-08-06T11:07:35;16.50;99.60
2260;DHT22;333;48.800;9.530;2023-08-06T11:10:03;16.50;99.60
2260;DHT22;333;48.800;9.530;2023-08-06T11:12:31;16.60;99.60
2260;DHT22;333;48.800;9.530;2023-08-06T11:14:59;16.70;99.60
2260;DHT22;333;48.800;9.530;2023-08-06T11:17:27;16.70;99.60
2260;DHT22;333;48.800;9.530;2023-08-06T11:19:55;16.80;99.60
2260;DHT22;333;48.800;9.530;2023-08-06T11:22:22;16.80;99.60
2260;DHT22;333;48.800;9.530;2023-08-06T11:24:49;16.70;99.60
2260;DHT22;333;48.800;9.530;2023-08-06T11:27:17;16.60;99.60
2260;DHT22;333;48.800;9.530;2023-08-06T11:29:44;16.50;99.60
2260;DHT22;333;48.800;9.530;2023-08-06T11:32:13;16.20;99.60
2260;DHT22;333;48.800;9.530;2023-08-06T11:34:40;15.80;99.60
2260;DHT22;333;48.800;9.530;2023-08-06T11:37:07;15.70;99.60
2260;DHT22;333;48.800;9.530;2023-08-06T11:39:35;15.60;99.60
2260;DHT22;333;48.800;9.530;2023-08-06T11:42:03;15.50;99.60
2260;DHT22;333;48.800;9.530;2023-08-06T11:44:30;15.50;99.60
2260;DHT22;333;48.800;9.530;2023-08-06T11:46:59;15.60;99.60
2260;DHT22;333;48.800;9.530;2023-08-06T11:49:47;15.70;99.60
2260;DHT22;333;48.800;9.530;2023-08-06T11:52:19;15.60;99.60
2260;DHT22;333;48.800;9.530;2023-08-06T11:54:47;15.50;99.60
2260;DHT22;333;48.800;9.530;2023-08-06T11:57:15;15.40;99.60
2260;DHT22;333;48.800;9.530;2023-08-06T11:59:42;15.40;99.60
2260;DHT22;333;48.800;9.530;2023-08-06T12:02:10;15.30;99.60
2260;DHT22;333;48.800;9.530;2023-08-06T12:05:03;15.30;99.60
2260;DHT22;333;48.800;9.530;2023-08-06T12:07:32;15.30;99.60
2260;DHT22;333;48.800;9.530;2023-08-06T12:09:59;15.30;99.60
2260;DHT22;333;48.800;9.530;2023-08-06T12:12:27;15.40;99.60
2260;DHT22;333;48.800;9.530;2023-08-06T12:14:55;15.50;99.60
2260;DHT22;333;48.800;9.530;2023-08-06T12:17:22;15.40;99.60
2260;DHT22;333;48.800;9.530;2023-08-06T12:19:49;15.40;99.60
2260;DHT22;333;48.800;9.530;2023-08-06T12:22:18;15.30;99.60
2260;DHT22;333;48.800;9.530;2023-08-06T12:24:46;15.30;99.60
2260;DHT22;333;48.800;9.530;2023-08-06T12:27:14;15.20;99.60
2260;DHT22;333;48.800;9.530;2023-08-06T12:29:42;15.20;99.60
2260;DHT22;333;48.800;9.530;2023-08-06T12:32:09;15.10;99.60
2260;DHT22;333;48.800;9.530;2023-08-06T12:34:37;14.90;99.60
2260;DHT22;333;48.800;9.530;2023-08-06T12:37:04;14.90;99.60
2260;DHT22;333;48.800;9.530;2023-08-06T12:39:34;14.70;99.60
2260;DHT22;333;48.800;9.530;2023-08-06T12:42:01;14.60;99.60
2260;DHT22;333;48.800;9.530;2023-08-06T12:44:28;14.60;99.60
2260;DHT22;333;48.800;9.530;2023-08-06T12:46:55;14.60;99.60
2260;DHT22;333;48.800;9.530;2023-08-06T12:49:22;14.50;99.60
2260;DHT22;333;48.800;9.530;2023-08-06T12:51:50;14.50;99.60
2260;DHT22;333;48.800;9.530;2023-08-06T12:54:17;14.50;99.60
2260;DHT22;333;48.800;9.530;2023-08-06T12:56:46;14.50;99.60
2260;DHT22;333;48.800;9.530;2023-08-06T12:59:15;14.50;99.60
2260;DHT22;333;48.800;9.530;2023-08-06T13:01:42;14.50;99.60
2260;DHT22;333;48.800;9.530;2023-08-06T13:04:10;14.50;99.60
2260;DHT22;333;48.800;9.530;2023-08-06T13:06:37;14.50;99.60
2260;DHT22;333;48.800;9.530;2023-08-06T13:09:05;14.60;99.60
2260;DHT22;333;48.800;9.530;2023-08-06T13:11:34;14.60;99.60
2260;DHT22;333;48.800;9.530;2023-08-06T13:14:06;14.60;99.60
2260;DHT22;333;48.800;9.530;2023-08-06T13:16:33;14.70;99.60
2260;DHT22;333;48.800;9.530;2023-08-06T13:19:00;14.70;99.60
2260;DHT22;333;48.800;9.530;2023-08-06T13:21:33;14.70;99.60
2260;DHT22;333;48.800;9.530;2023-08-06T13:24:01;14.70;99.60
2260;DHT22;333;48.800;9.530;2023-08-06T13:26:28;14.70;99.60
2260;DHT22;333;48.800;9.530;2023-08-06T13:28:57;14.80;99.60
2260;DHT22;333;48.800;9.530;2023-08-06T13:31:26;14.80;99.60
2260;DHT22;333;48.800;9.530;2023-08-06T13:33:53;14.90;99.60
2260;DHT22;333;48.800;9.530;2023-08-06T13:36:21;15.00;99.60
2260;DHT22;333;48.800;9.530;2023-08-06T13:38:48;15.10;99.60
2260;DHT22;333;48.800;9.530;2023-08-06T13:41:15;15.30;99.60
2260;DHT22;333;48.800;9.530;2023-08-06T13:43:42;15.30;99.60
2260;DHT22;333;48.800;9.530;2023-08-06T13:46:09;15.40;99.60
2260;DHT22;333;48.800;9.530;2023-08-06T13:48:41;15.50;99.60
2260;DHT22;333;48.800;9.530;2023-08-06T13:51:09;15.50;99.60
2260;DHT22;333;48.800;9.530;2023-08-06T13:53:36;15.50;99.60
2260;DHT22;333;48.800;9.530;2023-08-06T13:56:03;15.60;99.60
2260;DHT22;333;48.800;9.530;2023-08-06T13:58:30;15.80;99.60
2260;DHT22;333;48.800;9.530;2023-08-06T14:00:57;16.00;99.60
2260;DHT22;333;48.800;9.530;2023-08-06T14:03:24;16.00;99.60
2260;DHT22;333;48.800;9.530;2023-08-06T14:05:52;16.00;99.60
2260;DHT22;333;48.800;9.530;2023-08-06T14:08:21;15.90;99.60
2260;DHT22;333;48.800;9.530;2023-08-06T14:10:48;15.90;99.60
2260;DHT22;333;48.800;9.530;2023-08-06T14:13:15;16.00;99.60
2260;DHT22;333;48.800;9.530;2023-08-06T14:15:42;16.00;99.60
2260;DHT22;333;48.800;9.530;2023-08-06T14:18:12;16.10;99.60
2260;DHT22;333;48.800;9.530;2023-08-06T14:20:39;16.20;99.60
2260;DHT22;333;48.800;9.530;2023-08-06T14:23:08;16.30;99.60
2260;DHT22;333;48.800;9.530;2023-08-06T14:25:35;16.40;99.60
2260;DHT22;333;48.800;9.530;2023-08-06T14:28:02;16.50;99.60
2260;DHT22;333;48.800;9.530;2023-08-06T14:30:29;16.70;99.60
2260;DHT22;333;48.800;9.530;2023-08-06T14:32:56;16.70;99.60
2260;DHT22;333;48.800;9.530;2023-08-06T14:35:24;16.50;99.60
2260;DHT22;333;48.800;9.530;2023-08-06T14:37:51;16.40;99.60
2260;DHT22;333;48.800;9.530;2023-08-06T14:40:19;16.20;99.60
2260;DHT22;333;48.800;9.530;2023-08-06T14:42:46;16.20;99.60
2260;DHT22;333;48.800;9.530;2023-08-06T14:45:13;16.10;99.60
2260;DHT22;333;48.800;9.530;2023-08-06T14:47:40;16.10;99.60
2260;DHT22;333;48.800;9.530;2023-08-06T14:50:07;16.20;99.60
2260;DHT22;333;48.800;9.530;2023-08-06T14:52:34;16.30;99.60
2260;DHT22;333;48.800;9.530;2023-08-06T14:55:01;16.40;99.60
2260;DHT22;333;48.800;9.530;2023-08-06T14:57:31;16.60;99.60
2260;DHT22;333;48.800;9.530;2023-08-06T14:59:58;16.90;99.60
2260;DHT22;333;48.800;9.530;2023-08-06T15:02:26;17.10;99.60
2260;DHT22;333;48.800;9.530;2023-08-06T15:04:53;17.10;99.60
2260;DHT22;333;48.800;9.530;2023-08-06T15:07:23;17.00;99.60
2260;DHT22;333;48.800;9.530;2023-08-06T15:09:54;16.70;99.60
2260;DHT22;333;48.800;9.530;2023-08-06T15:12:21;16.60;99.60
2260;DHT22;333;48.800;9.530;2023-08-06T15:14:50;16.50;99.60
2260;DHT22;333;48.800;9.530;2023-08-06T15:17:17;16.40;99.60
2260;DHT22;333;48.800;9.530;2023-08-06T15:19:44;15.90;99.60
2260;DHT22;333;48.800;9.530;2023-08-06T15:22:11;15.20;99.60
2260;DHT22;333;48.800;9.530;2023-08-06T15:24:38;15.00;99.60
2260;DHT22;333;48.800;9.530;2023-08-06T15:27:07;14.90;99.60
2260;DHT22;333;48.800;9.530;2023-08-06T15:29:35;14.90;99.60
2260;DHT22;333;48.800;9.530;2023-08-06T15:32:04;14.90;99.60
2260;DHT22;333;48.800;9.530;2023-08-06T15:34:31;14.90;99.60
2260;DHT22;333;48.800;9.530;2023-08-06T15:36:58;14.80;99.60
2260;DHT22;333;48.800;9.530;2023-08-06T15:39:25;14.80;99.60
2260;DHT22;333;48.800;9.530;2023-08-06T15:41:52;14.90;99.60
2260;DHT22;333;48.800;9.530;2023-08-06T15:44:19;14.90;99.60
2260;DHT22;333;48.800;9.530;2023-08-06T15:46:46;15.00;99.60
2260;DHT22;333;48.800;9.530;2023-08-06T15:49:15;15.10;99.60
2260;DHT22;333;48.800;9.530;2023-08-06T15:51:42;15.10;99.60
2260;DHT22;333;48.800;9.530;2023-08-06T15:54:09;15.20;99.60
2260;DHT22;333;48.800;9.530;2023-08-06T15:56:36;15.20;99.60
2260;DHT22;333;48.800;9.530;2023-08-06T15:59:25;15.30;99.60
2260;DHT22;333;48.800;9.530;2023-08-06T16:01:53;15.40;99.60
2260;DHT22;333;48.800;9.530;2023-08-06T16:04:25;15.40;99.60
2260;DHT22;333;48.800;9.530;2023-08-06T16:06:52;15.40;99.60
2260;DHT22;333;48.800;9.530;2023-08-06T16:09:20;15.30;99.60
2260;DHT22;333;48.800;9.530;2023-08-06T16:11:49;15.20;99.60
2260;DHT22;333;48.800;9.530;2023-08-06T16:14:16;15.10;99.60
2260;DHT22;333;48.800;9.530;2023-08-06T16:16:44;15.00;99.60
2260;DHT22;333;48.800;9.530;2023-08-06T16:19:12;14.90;99.60
2260;DHT22;333;48.800;9.530;2023-08-06T16:21:41;14.90;99.60